Time;durP1;ratioP1;P1;durP2;ratioP2;P2;SDS_P1;SDS_P2;PMS_P1;PMS_P2;Temp;Humidity;BMP_temperature;BMP_pressure;BME280_temperature;BME280_humidity;BME280_pressure;Samples;Min_cycle;Max_cycle;Signal;HPM_P1;HPM_P2
2022/03/23 00:01:45;;;;;;;50.85;26.13;;;8.70;99.90;;;;;;5119967;27;20051;-84
2022/03/23 00:04:10;;;;;;;51.08;25.30;;;9.00;99.90;;;;;;5102491;27;20057;-84
2022/03/23 00:06:36;;;;;;;50.97;26.42;;;8.70;99.90;;;;;;5119618;27;20051;-84
2022/03/23 00:09:02;;;;;;;48.38;25.10;;;8.60;99.90;;;;;;5102298;27;20088;-85
2022/03/23 00:11:28;;;;;;;53.97;27.13;;;8.60;99.90;;;;;;5137781;27;20088;-84
2022/03/23 00:13:54;;;;;;;50.35;26.35;;;8.50;99.90;;;;;;5119029;27;20082;-85
2022/03/23 00:16:20;;;;;;;51.15;26.67;;;8.50;99.90;;;;;;5119074;27;20074;-84
2022/03/23 00:18:46;;;;;;;55.20;27.30;;;8.50;99.90;;;;;;5136329;27;20425;-84
2022/03/23 00:21:12;;;;;;;54.53;25.85;;;8.30;99.90;;;;;;5119179;27;20035;-84
2022/03/23 00:23:37;;;;;;;47.92;25.88;;;8.30;99.90;;;;;;5118912;27;20397;-84
2022/03/23 00:26:03;;;;;;;48.13;26.13;;;8.30;99.90;;;;;;5119553;27;20046;-84
2022/03/23 00:28:29;;;;;;;53.30;25.70;;;8.20;99.90;;;;;;5137270;27;20051;-85
2022/03/23 00:30:55;;;;;;;56.88;26.83;;;8.10;99.90;;;;;;5118787;27;20126;-84
2022/03/23 00:33:23;;;;;;;47.28;25.45;;;8.30;99.90;;;;;;5101552;27;20485;-84
2022/03/23 00:35:49;;;;;;;51.60;25.52;;;8.00;99.90;;;;;;5119008;27;20039;-84
2022/03/23 00:38:17;;;;;;;51.60;25.73;;;7.90;99.90;;;;;;5137488;27;20039;-84
2022/03/23 00:40:44;;;;;;;48.42;26.08;;;8.50;99.90;;;;;;5102036;27;20077;-84
2022/03/23 00:43:11;;;;;;;48.53;25.65;;;8.20;99.90;;;;;;5118771;27;20078;-84
2022/03/23 00:45:37;;;;;;;48.67;24.27;;;7.80;99.90;;;;;;5118498;27;20439;-84
2022/03/23 00:48:04;;;;;;;47.33;23.63;;;8.20;99.90;;;;;;5135837;27;20080;-84
2022/03/23 00:50:30;;;;;;;45.78;24.10;;;7.60;99.90;;;;;;5101786;27;20035;-84
2022/03/23 00:52:55;;;;;;;48.85;23.77;;;7.50;99.90;;;;;;5118057;27;20155;-84
2022/03/23 00:55:21;;;;;;;46.15;25.05;;;7.40;99.90;;;;;;5118302;27;20481;-84
2022/03/23 00:57:47;;;;;;;49.70;24.98;;;7.40;99.90;;;;;;5101361;27;20043;-85
2022/03/23 01:00:17;;;;;;;47.78;24.40;;;7.30;99.90;;;;;;5117098;27;20039;-84
2022/03/23 01:02:44;;;;;;;48.33;24.35;;;7.40;99.90;;;;;;5101227;27;20040;-84
2022/03/23 01:05:11;;;;;;;49.33;24.80;;;7.20;99.90;;;;;;5118027;27;20082;-84
2022/03/23 01:07:38;;;;;;;47.40;25.27;;;7.10;99.90;;;;;;5118461;27;20481;-84
2022/03/23 01:10:05;;;;;;;49.13;25.17;;;7.80;99.90;;;;;;5118470;27;20130;-84
2022/03/23 01:12:31;;;;;;;48.78;24.67;;;7.10;99.90;;;;;;5135102;27;20135;-84
2022/03/23 01:14:57;;;;;;;49.97;25.25;;;7.40;99.90;;;;;;5100822;27;20050;-84
2022/03/23 01:17:24;;;;;;;47.33;24.67;;;7.10;99.90;;;;;;5118291;27;20047;-84
2022/03/23 01:19:50;;;;;;;50.38;26.83;;;7.10;99.90;;;;;;5119062;27;20140;-84
2022/03/23 01:22:16;;;;;;;52.00;27.20;;;7.10;99.90;;;;;;5119212;27;20051;-84
2022/03/23 01:24:43;;;;;;;53.22;27.90;;;7.10;99.90;;;;;;5101661;27;20035;-84
2022/03/23 01:27:09;;;;;;;52.35;26.58;;;7.40;99.90;;;;;;5118378;27;20134;-84
2022/03/23 01:29:35;;;;;;;50.05;26.15;;;7.00;99.90;;;;;;5136959;27;20043;-84
2022/03/23 01:32:01;;;;;;;49.65;26.75;;;6.90;99.90;;;;;;5118377;27;20043;-84
2022/03/23 01:34:26;;;;;;;52.70;27.27;;;6.90;99.90;;;;;;5118099;27;20051;-84
2022/03/23 01:36:52;;;;;;;51.42;26.45;;;6.80;99.90;;;;;;5137069;27;20043;-84
2022/03/23 01:39:18;;;;;;;52.42;26.67;;;6.70;99.90;;;;;;5118245;27;20046;-84
2022/03/23 01:41:44;;;;;;;49.33;25.75;;;6.70;99.90;;;;;;5101116;27;20062;-84
2022/03/23 01:44:17;;;;;;;53.10;26.83;;;6.70;99.90;;;;;;5118283;27;20039;-84
2022/03/23 01:47:03;;;;;;;58.85;28.83;;;6.60;99.90;;;;;;5118026;27;20122;-84
2022/03/23 01:49:30;;;;;;;74.03;30.02;;;6.60;99.90;;;;;;5104620;27;20035;-84
2022/03/23 01:51:56;;;;;;;58.58;31.55;;;6.90;99.90;;;;;;5125898;27;20488;-84
2022/03/23 01:54:21;;;;;;;57.22;28.65;;;6.50;99.90;;;;;;5124090;27;20203;-84
2022/03/23 01:56:49;;;;;;;59.65;28.65;;;6.50;99.90;;;;;;5117682;27;20036;-84
2022/03/23 01:59:16;;;;;;;58.85;29.17;;;6.50;99.90;;;;;;5100783;27;20450;-84
2022/03/23 02:01:43;;;;;;;59.15;29.02;;;6.50;99.90;;;;;;5117279;27;20047;-84
2022/03/23 02:04:09;;;;;;;61.15;30.30;;;6.40;99.90;;;;;;5100407;27;20122;-84
2022/03/23 02:06:35;;;;;;;61.33;29.80;;;6.40;99.90;;;;;;5136000;27;20064;-84
2022/03/23 02:09:01;;;;;;;58.35;30.58;;;6.40;99.90;;;;;;5117026;27;20103;-84
2022/03/23 02:11:29;;;;;;;63.63;31.70;;;7.00;99.90;;;;;;5116739;27;20053;-84
2022/03/23 02:13:54;;;;;;;61.92;30.48;;;6.30;99.90;;;;;;5099602;27;20047;-84
2022/03/23 02:16:20;;;;;;;64.40;31.05;;;6.30;99.90;;;;;;5116684;27;20039;-84
2022/03/23 02:18:46;;;;;;;59.15;28.98;;;6.60;99.90;;;;;;5116745;28;20035;-84
2022/03/23 02:21:15;;;;;;;57.45;29.70;;;6.30;99.90;;;;;;5117907;27;20071;-84
2022/03/23 02:23:41;;;;;;;56.88;29.13;;;6.30;99.90;;;;;;5106981;27;20043;-84
2022/03/23 02:26:09;;;;;;;59.83;29.80;;;6.20;99.90;;;;;;5136131;27;20383;-84
2022/03/23 02:28:36;;;;;;;61.92;30.63;;;6.20;99.90;;;;;;5116554;28;20069;-84
2022/03/23 02:31:05;;;;;;;63.63;30.80;;;6.20;99.90;;;;;;5117034;28;20062;-84
2022/03/23 02:33:31;;;;;;;64.85;31.38;;;6.20;99.90;;;;;;5116578;28;20481;-84
2022/03/23 02:35:57;;;;;;;66.20;32.25;;;6.10;99.90;;;;;;5116895;28;20043;-84
2022/03/23 02:38:23;;;;;;;70.40;32.22;;;6.80;99.90;;;;;;5116856;28;20039;-84
2022/03/23 02:40:49;;;;;;;67.07;33.22;;;6.10;99.90;;;;;;5116674;28;20344;-84
2022/03/23 02:43:14;;;;;;;69.00;33.05;;;6.00;99.90;;;;;;5116644;28;20423;-84
2022/03/23 02:45:40;;;;;;;75.18;35.38;;;6.10;99.90;;;;;;5135135;28;20044;-84
2022/03/23 02:48:06;;;;;;;71.20;34.15;;;6.00;99.90;;;;;;5116323;28;20269;-84
2022/03/23 02:50:33;;;;;;;74.28;35.10;;;6.00;99.90;;;;;;5099644;28;20385;-84
2022/03/23 03:04:16;;;;;;;83.43;37.42;;;5.90;99.90;;;;;;5115971;28;20085;-84
2022/03/23 03:06:41;;;;;;;77.10;36.78;;;6.10;99.90;;;;;;5099516;28;20393;-84
2022/03/23 03:09:07;;;;;;;73.75;35.30;;;5.80;99.90;;;;;;5116595;28;20043;-84
2022/03/23 03:11:32;;;;;;;79.68;36.88;;;5.80;99.90;;;;;;5101269;28;20127;-84
2022/03/23 03:13:58;;;;;;;72.22;35.28;;;5.80;99.90;;;;;;5117352;28;20423;-84
2022/03/23 03:16:24;;;;;;;76.82;37.20;;;5.90;99.90;;;;;;5117229;28;20093;-84
2022/03/23 03:18:49;;;;;;;78.75;36.22;;;5.70;99.90;;;;;;5135521;28;20070;-84
2022/03/23 03:21:16;;;;;;;74.93;38.03;;;5.60;99.90;;;;;;5120806;28;20072;-84
2022/03/23 03:23:43;;;;;;;81.72;36.42;;;5.60;99.90;;;;;;5118954;27;20055;-84
2022/03/23 03:26:10;;;;;;;77.72;36.00;;;5.60;99.90;;;;;;5121043;27;20038;-84
2022/03/23 03:28:37;;;;;;;80.53;37.33;;;5.60;99.90;;;;;;5121194;27;20118;-84
2022/03/23 03:31:05;;;;;;;78.78;35.90;;;5.60;99.90;;;;;;5120616;27;20079;-84
2022/03/23 03:33:31;;;;;;;76.03;35.60;;;5.60;99.90;;;;;;5103221;27;20091;-84
2022/03/23 03:35:57;;;;;;;84.55;38.83;;;5.50;99.90;;;;;;5103113;27;20430;-84
2022/03/23 03:38:22;;;;;;;82.88;37.90;;;5.50;99.90;;;;;;5120828;27;20035;-84
2022/03/23 03:40:48;;;;;;;80.45;36.78;;;5.50;99.90;;;;;;5103672;27;20382;-84
2022/03/23 03:43:16;;;;;;;82.43;39.17;;;5.50;99.90;;;;;;5138798;27;20485;-84
2022/03/23 03:45:42;;;;;;;80.60;38.38;;;5.50;99.90;;;;;;5120123;27;20091;-84
2022/03/23 03:48:08;;;;;;;71.93;35.47;;;5.40;99.90;;;;;;5119773;27;20122;-84
2022/03/23 03:50:34;;;;;;;79.57;36.85;;;5.40;99.90;;;;;;5119851;27;20081;-84
2022/03/23 03:53:01;;;;;;;79.80;37.03;;;5.40;99.90;;;;;;5119920;27;20485;-84
2022/03/23 03:55:26;;;;;;;79.72;37.00;;;5.80;99.90;;;;;;5119672;27;20527;-84
2022/03/23 03:57:53;;;;;;;82.47;37.28;;;5.40;99.90;;;;;;5119814;27;20086;-84
2022/03/23 04:00:18;;;;;;;80.32;35.58;;;5.40;99.90;;;;;;5119592;27;20039;-84
2022/03/23 04:02:44;;;;;;;80.47;36.60;;;5.40;99.90;;;;;;5119803;27;20042;-84
2022/03/23 04:05:10;;;;;;;74.15;36.25;;;5.40;99.90;;;;;;5119892;27;20126;-84
2022/03/23 04:07:35;;;;;;;76.57;35.95;;;5.50;99.90;;;;;;5103109;27;20045;-84
2022/03/23 04:10:02;;;;;;;79.35;35.80;;;5.40;99.90;;;;;;5119965;27;20039;-84
2022/03/23 04:12:28;;;;;;;79.40;36.55;;;5.40;99.90;;;;;;5119360;27;20047;-84
2022/03/23 04:14:54;;;;;;;78.82;36.63;;;5.40;99.90;;;;;;5102796;27;20055;-84
2022/03/23 04:17:19;;;;;;;81.60;37.38;;;5.30;99.90;;;;;;5119462;27;20500;-84
2022/03/23 04:19:45;;;;;;;87.20;39.85;;;5.20;99.90;;;;;;5119534;27;20043;-84
2022/03/23 04:22:10;;;;;;;82.88;39.20;;;5.20;99.90;;;;;;5127305;27;20050;-84
2022/03/23 04:24:36;;;;;;;90.15;40.38;;;5.20;99.90;;;;;;5128126;27;20412;-84
2022/03/23 04:27:02;;;;;;;87.03;39.63;;;5.10;99.90;;;;;;5119190;27;20126;-84
2022/03/23 04:29:27;;;;;;;85.57;40.15;;;5.10;99.90;;;;;;5137617;27;20473;-84
2022/03/23 04:31:53;;;;;;;80.90;38.35;;;5.10;99.90;;;;;;5137453;27;20042;-84
2022/03/23 04:34:19;;;;;;;82.45;37.38;;;5.10;99.90;;;;;;5137408;27;20392;-84
2022/03/23 04:36:45;;;;;;;83.43;38.22;;;5.10;99.90;;;;;;5119172;27;20039;-84
2022/03/23 04:39:11;;;;;;;83.93;39.15;;;5.10;99.90;;;;;;5102178;27;20050;-84
2022/03/23 04:41:36;;;;;;;85.63;38.88;;;5.10;99.90;;;;;;5119175;27;20056;-84
2022/03/23 04:44:02;;;;;;;87.97;39.42;;;5.10;99.90;;;;;;5101983;27;20421;-84
2022/03/23 04:46:28;;;;;;;81.05;37.97;;;5.00;99.90;;;;;;5118515;27;20070;-84
2022/03/23 04:48:54;;;;;;;80.25;37.78;;;5.00;99.90;;;;;;5101439;27;20480;-84
2022/03/23 04:51:20;;;;;;;80.53;38.75;;;5.00;99.90;;;;;;5101413;27;20121;-84
2022/03/23 04:53:45;;;;;;;80.78;39.17;;;4.90;99.90;;;;;;5118820;27;20038;-84
2022/03/23 04:56:12;;;;;;;86.80;40.10;;;4.80;99.90;;;;;;5119048;27;20047;-84
2022/03/23 04:58:37;;;;;;;89.45;41.10;;;4.80;99.90;;;;;;5118606;27;20055;-84
2022/03/23 05:01:03;;;;;;;89.78;41.17;;;4.80;99.90;;;;;;5118705;27;20039;-84
2022/03/23 05:03:29;;;;;;;91.82;40.03;;;4.90;99.90;;;;;;5118752;27;20047;-84
2022/03/23 05:05:55;;;;;;;88.28;39.28;;;4.90;99.90;;;;;;5102120;27;20376;-84
2022/03/23 05:08:21;;;;;;;90.57;42.22;;;4.90;99.90;;;;;;5118390;27;20184;-84
2022/03/23 05:10:47;;;;;;;89.85;40.30;;;5.00;99.90;;;;;;5118551;27;20051;-84
2022/03/23 05:13:12;;;;;;;85.82;40.35;;;5.00;99.90;;;;;;5119064;27;20051;-84
2022/03/23 05:15:38;;;;;;;85.65;40.40;;;4.90;99.90;;;;;;5118748;27;20047;-84
2022/03/23 05:18:05;;;;;;;91.97;41.35;;;5.00;99.90;;;;;;5118471;27;20061;-84
2022/03/23 05:20:30;;;;;;;94.80;41.50;;;5.00;99.90;;;;;;5118224;27;20079;-84
2022/03/23 05:22:56;;;;;;;88.50;41.47;;;5.00;99.90;;;;;;5136835;27;20066;-84
2022/03/23 05:25:22;;;;;;;92.32;39.72;;;5.00;99.90;;;;;;5101523;27;20039;-84
2022/03/23 05:27:48;;;;;;;88.55;40.30;;;5.00;99.90;;;;;;5118248;27;20057;-84
2022/03/23 05:30:14;;;;;;;85.57;40.60;;;5.20;99.90;;;;;;5119080;27;20040;-84
2022/03/23 05:32:41;;;;;;;85.05;39.47;;;5.00;99.90;;;;;;5101182;27;20085;-84
2022/03/23 05:35:08;;;;;;;86.22;39.47;;;4.90;99.90;;;;;;5101162;27;20055;-84
2022/03/23 05:37:34;;;;;;;84.45;40.22;;;5.00;99.90;;;;;;5118098;27;20114;-84
2022/03/23 05:40:03;;;;;;;90.28;41.28;;;4.90;99.90;;;;;;5135658;27;20047;-84
2022/03/23 05:42:29;;;;;;;90.38;41.78;;;5.50;99.90;;;;;;5118095;27;20047;-84
2022/03/23 05:44:54;;;;;;;93.95;42.55;;;5.00;99.90;;;;;;5101221;27;20043;-84
2022/03/23 05:47:21;;;;;;;88.43;41.67;;;5.20;99.90;;;;;;5117419;27;20039;-84
2022/03/23 05:49:46;;;;;;;91.05;41.17;;;5.00;99.90;;;;;;5100736;27;20043;-84
2022/03/23 05:52:12;;;;;;;88.80;40.80;;;5.00;99.90;;;;;;5135043;27;20504;-84
2022/03/23 05:54:39;;;;;;;92.78;41.65;;;5.10;99.90;;;;;;5117074;27;20468;-84
2022/03/23 05:57:05;;;;;;;85.18;40.70;;;5.00;99.90;;;;;;5117129;27;20151;-84
2022/03/23 05:59:31;;;;;;;91.57;42.97;;;5.00;99.90;;;;;;5117374;27;20498;-84
2022/03/23 06:02:00;;;;;;;94.63;41.35;;;5.00;99.90;;;;;;5136092;27;20043;-84
2022/03/23 06:04:26;;;;;;;91.50;42.83;;;5.00;99.90;;;;;;5101964;28;20068;-84
2022/03/23 06:06:52;;;;;;;92.80;42.72;;;5.00;99.90;;;;;;5142426;27;20031;-84
2022/03/23 06:09:19;;;;;;;93.03;42.20;;;5.10;99.90;;;;;;5160524;27;20019;-84
2022/03/23 06:11:44;;;;;;;94.82;44.15;;;5.10;99.90;;;;;;5143039;27;20047;-84
2022/03/23 06:14:10;;;;;;;95.63;42.58;;;5.20;99.90;;;;;;5115143;27;20104;-84
2022/03/23 06:16:35;;;;;;;90.28;42.60;;;5.20;99.90;;;;;;5120904;27;20069;-84
2022/03/23 06:19:02;;;;;;;96.38;43.45;;;5.30;99.90;;;;;;5138496;27;20088;-84
2022/03/23 06:21:27;;;;;;;95.90;44.20;;;5.30;99.90;;;;;;5121470;28;20050;-84
2022/03/23 06:23:53;;;;;;;96.03;43.85;;;5.30;99.90;;;;;;5118897;27;20045;-84
2022/03/23 06:26:19;;;;;;;103.07;45.30;;;5.30;99.90;;;;;;5118699;27;20035;-84
2022/03/23 06:28:44;;;;;;;93.88;43.10;;;5.30;99.90;;;;;;5118225;28;20047;-84
2022/03/23 06:31:10;;;;;;;92.38;43.35;;;5.60;99.90;;;;;;5117044;27;20465;-84
2022/03/23 06:33:35;;;;;;;94.00;43.92;;;6.20;99.90;;;;;;5117282;28;20043;-84
2022/03/23 06:36:02;;;;;;;90.15;41.28;;;5.50;99.90;;;;;;5099543;28;20090;-84
2022/03/23 06:38:27;;;;;;;96.60;44.58;;;5.70;99.90;;;;;;5116681;28;20055;-84
2022/03/23 06:40:53;;;;;;;98.15;43.30;;;5.60;99.90;;;;;;5135712;28;20050;-84
2022/03/23 06:43:19;;;;;;;92.15;43.13;;;5.60;99.90;;;;;;5135471;28;20477;-84
2022/03/23 06:45:45;;;;;;;94.93;45.17;;;5.70;99.90;;;;;;5116949;28;20550;-84
2022/03/23 06:48:10;;;;;;;99.80;45.30;;;5.80;99.90;;;;;;5116998;28;20482;-84
2022/03/23 06:50:36;;;;;;;98.82;45.42;;;5.90;99.90;;;;;;5116258;28;20076;-84
2022/03/23 06:53:02;;;;;;;88.95;43.15;;;6.30;99.90;;;;;;5116417;28;20070;-84
2022/03/23 06:55:28;;;;;;;93.57;45.40;;;6.60;99.90;;;;;;5116301;28;20051;-84
2022/03/23 06:57:54;;;;;;;94.30;42.05;;;6.30;99.90;;;;;;5118486;27;20485;-84
2022/03/23 07:00:19;;;;;;;78.75;39.38;;;6.40;99.90;;;;;;5120589;27;20043;-84
2022/03/23 07:02:47;;;;;;;84.15;41.85;;;6.50;99.90;;;;;;5120656;27;20070;-84
2022/03/23 07:05:15;;;;;;;85.03;40.50;;;6.60;99.90;;;;;;5121342;27;20051;-84
2022/03/23 07:10:25;;;;;;;83.67;39.63;;;6.70;99.90;;;;;;5138978;27;20039;-84
2022/03/23 07:12:51;;;;;;;77.47;39.10;;;7.50;99.90;;;;;;5120491;27;20105;-84
2022/03/23 07:15:17;;;;;;;78.07;37.72;;;7.00;99.90;;;;;;5123812;27;20076;-84
2022/03/23 07:17:42;;;;;;;77.47;39.20;;;7.10;99.90;;;;;;5128839;27;20092;-84
2022/03/23 07:20:09;;;;;;;75.13;36.03;;;7.20;99.90;;;;;;5111859;27;20043;-84
2022/03/23 07:22:35;;;;;;;67.93;34.38;;;7.40;99.90;;;;;;5141609;27;20047;-84
2022/03/23 07:25:01;;;;;;;66.05;34.15;;;7.70;99.90;;;;;;5120030;27;20168;-84
2022/03/23 07:27:26;;;;;;;63.88;33.20;;;7.60;99.90;;;;;;5120055;27;20405;-84
2022/03/23 07:29:52;;;;;;;61.85;32.08;;;7.70;99.90;;;;;;5102835;27;20031;-84
2022/03/23 07:32:18;;;;;;;63.10;33.13;;;7.90;99.90;;;;;;5102775;27;20047;-84
2022/03/23 07:34:46;;;;;;;58.45;31.70;;;8.00;99.90;;;;;;5126855;27;20051;-84
2022/03/23 07:37:12;;;;;;;55.03;28.40;;;8.10;99.90;;;;;;5120400;27;20043;-84
2022/03/23 07:39:38;;;;;;;54.42;29.35;;;8.80;99.90;;;;;;5105086;27;20496;-85
2022/03/23 07:42:05;;;;;;;50.33;27.88;;;8.50;99.90;;;;;;5119733;27;20389;-84
2022/03/23 07:44:34;;;;;;;53.22;28.15;;;8.60;99.90;;;;;;5119560;27;20047;-84
2022/03/23 07:47:00;;;;;;;46.97;26.48;;;8.80;99.90;;;;;;5119599;27;20505;-84
2022/03/23 07:49:26;;;;;;;45.38;25.20;;;9.00;99.90;;;;;;5119322;27;20086;-85
2022/03/23 07:51:51;;;;;;;49.28;25.65;;;9.10;99.90;;;;;;5102678;27;20074;-84
2022/03/23 07:54:17;;;;;;;45.53;25.02;;;9.80;99.90;;;;;;5119911;27;20524;-84
2022/03/23 07:56:43;;;;;;;42.67;24.45;;;9.80;99.90;;;;;;5120381;27;20099;-84
2022/03/23 07:59:09;;;;;;;44.72;23.92;;;9.60;99.90;;;;;;5102745;27;20477;-84
2022/03/23 08:01:35;;;;;;;43.53;24.00;;;9.70;99.90;;;;;;5123970;27;20039;-84
2022/03/23 08:04:01;;;;;;;47.72;25.15;;;9.80;99.90;;;;;;5121622;27;20134;-85
2022/03/23 08:06:28;;;;;;;45.00;25.48;;;10.00;99.90;;;;;;5119076;27;20031;-85
2022/03/23 08:08:54;;;;;;;47.95;25.42;;;10.60;99.90;;;;;;5122916;27;20043;-84
2022/03/23 08:11:21;;;;;;;42.17;23.52;;;10.20;99.90;;;;;;5102132;27;20039;-84
2022/03/23 08:13:47;;;;;;;47.83;25.33;;;10.30;99.90;;;;;;5118920;27;20043;-85
2022/03/23 08:16:12;;;;;;;44.13;23.75;;;10.40;99.90;;;;;;5119189;27;20039;-84
2022/03/23 08:18:38;;;;;;;41.95;23.38;;;10.60;99.90;;;;;;5136268;27;20466;-84
2022/03/23 08:21:04;;;;;;;42.40;24.23;;;10.70;99.90;;;;;;5101845;27;20125;-84
2022/03/23 08:23:31;;;;;;;41.38;22.77;;;10.90;99.90;;;;;;5137508;27;20057;-85
2022/03/23 08:25:57;;;;;;;40.58;22.83;;;11.00;99.90;;;;;;5118645;27;20125;-84
2022/03/23 08:28:22;;;;;;;39.65;21.85;;;11.20;99.90;;;;;;5119120;27;20085;-84
2022/03/23 08:30:48;;;;;;;37.78;21.88;;;11.50;99.90;;;;;;5101872;27;20553;-85
2022/03/23 08:33:14;;;;;;;39.65;23.05;;;11.50;99.90;;;;;;5136074;27;20075;-84
2022/03/23 08:35:41;;;;;;;43.75;23.55;;;11.80;99.90;;;;;;5118821;27;20031;-85
2022/03/23 08:38:07;;;;;;;38.38;22.30;;;11.70;99.90;;;;;;5136071;27;20035;-84
2022/03/23 08:40:34;;;;;;;38.45;22.38;;;11.80;99.90;;;;;;5135975;27;20126;-84
2022/03/23 08:43:01;;;;;;;41.97;23.13;;;12.30;99.90;;;;;;5137183;27;20039;-84
2022/03/23 08:45:27;;;;;;;41.22;23.38;;;12.00;99.90;;;;;;5118895;27;20065;-85
2022/03/23 08:47:52;;;;;;;39.25;23.05;;;12.10;99.90;;;;;;5101683;27;20039;-84
2022/03/23 08:50:18;;;;;;;40.60;23.90;;;12.30;99.90;;;;;;5117984;27;20039;-85
2022/03/23 08:52:44;;;;;;;43.22;23.60;;;12.30;99.90;;;;;;5118212;27;20129;-84
2022/03/23 08:55:19;;;;;;;43.88;24.58;;;12.50;99.90;;;;;;5100910;27;20107;-84
2022/03/23 08:57:45;;;;;;;45.03;24.13;;;12.50;99.90;;;;;;5101054;27;20035;-84
2022/03/23 09:00:14;;;;;;;39.30;22.05;;;13.10;99.90;;;;;;5136692;27;20138;-84
2022/03/23 09:02:40;;;;;;;40.75;21.73;;;12.80;99.90;;;;;;5101516;27;20473;-84
2022/03/23 09:05:10;;;;;;;37.92;22.45;;;13.10;99.90;;;;;;5134872;27;20045;-84
2022/03/23 09:07:37;;;;;;;37.15;22.13;;;13.00;99.90;;;;;;5136623;27;20039;-84
2022/03/23 09:10:03;;;;;;;37.25;21.25;;;13.10;99.90;;;;;;5117710;27;20043;-84
2022/03/23 09:12:29;;;;;;;38.17;19.67;;;13.20;99.90;;;;;;5136409;27;20078;-84
2022/03/23 09:14:54;;;;;;;35.03;19.85;;;13.40;99.90;;;;;;5135047;27;20092;-85
2022/03/23 09:17:20;;;;;;;34.85;20.15;;;13.60;99.90;;;;;;5101424;27;20055;-85
2022/03/23 09:19:45;;;;;;;32.60;20.10;;;14.20;99.90;;;;;;5135235;27;20097;-85
2022/03/23 09:22:11;;;;;;;35.85;20.25;;;13.70;99.90;;;;;;5134470;27;20042;-85
2022/03/23 09:24:37;;;;;;;33.03;19.42;;;13.90;99.90;;;;;;5100849;27;20050;-85
2022/03/23 09:27:02;;;;;;;31.67;18.20;;;14.20;99.90;;;;;;5134888;27;20051;-85
2022/03/23 09:29:28;;;;;;;34.13;19.88;;;14.20;99.90;;;;;;5138032;27;20042;-85
2022/03/23 09:31:54;;;;;;;32.47;18.25;;;14.30;99.90;;;;;;5135612;27;20043;-85
2022/03/23 09:34:20;;;;;;;30.70;18.70;;;14.60;99.90;;;;;;5135159;27;20066;-84
2022/03/23 09:39:29;;;;;;;31.30;18.33;;;14.70;99.90;;;;;;5136140;27;20489;-85
2022/03/23 09:41:58;;;;;;;32.60;18.92;;;14.80;99.90;;;;;;5134943;27;20053;-85
2022/03/23 09:44:28;;;;;;;30.30;18.30;;;14.90;99.90;;;;;;5123137;22;20508;-85
2022/03/23 09:46:55;;;;;;;28.38;17.23;;;15.20;99.90;;;;;;5114343;28;20043;-84
2022/03/23 09:49:23;;;;;;;30.42;17.35;;;15.10;99.90;;;;;;5115934;28;20036;-84
2022/03/23 09:51:53;;;;;;;29.17;17.73;;;15.20;99.90;;;;;;5115180;28;20074;-85
2022/03/23 09:54:22;;;;;;;27.15;17.00;;;15.30;99.90;;;;;;5115070;28;20039;-84
2022/03/23 09:56:49;;;;;;;29.30;17.73;;;15.30;99.90;;;;;;5113891;28;20050;-84
2022/03/23 09:59:14;;;;;;;31.77;18.77;;;15.40;99.90;;;;;;5097146;28;20191;-84
2022/03/23 10:02:06;;;;;;;29.63;17.67;;;15.50;99.90;;;;;;5132349;27;20493;-84
2022/03/23 10:04:50;;;;;;;29.13;16.77;;;15.70;94.50;;;;;;5072481;28;20060;-84
2022/03/23 10:07:27;;;;;;;27.65;18.27;;;15.70;96.70;;;;;;5072727;28;20044;-84
2022/03/23 10:10:14;;;;;;;32.75;16.98;;;15.90;97.30;;;;;;5072653;28;20056;-84
2022/03/23 10:12:57;;;;;;;24.80;16.83;;;16.00;94.70;;;;;;5072158;28;20044;-84
2022/03/23 10:16:00;;;;;;;27.00;17.58;;;16.20;92.80;;;;;;5072246;28;20049;-84
2022/03/23 10:18:57;;;;;;;27.75;16.20;;;16.40;90.50;;;;;;5072231;28;20129;-84
2022/03/23 10:21:35;;;;;;;27.25;17.25;;;16.40;92.70;;;;;;5072618;28;20045;-84
2022/03/23 10:24:00;;;;;;;24.45;16.58;;;16.50;92.20;;;;;;5072302;28;20136;-84
2022/03/23 10:26:27;;;;;;;26.98;16.70;;;16.60;95.00;;;;;;5072732;28;20127;-84
2022/03/23 10:28:55;;;;;;;25.13;16.40;;;16.70;92.90;;;;;;5072886;28;20107;-84
2022/03/23 10:31:22;;;;;;;24.90;16.65;;;16.70;90.00;;;;;;5072807;28;20056;-84
2022/03/23 10:34:09;;;;;;;24.75;16.77;;;16.80;91.80;;;;;;5055454;28;20059;-84
2022/03/23 10:36:52;;;;;;;34.85;17.63;;;16.90;86.00;;;;;;5127210;28;20061;-84
2022/03/23 10:39:26;;;;;;;24.67;16.70;;;17.10;85.10;;;;;;5113188;28;20047;-85
2022/03/23 10:42:09;;;;;;;25.08;16.05;;;17.20;91.10;;;;;;5113501;28;20097;-84
2022/03/23 10:44:35;;;;;;;27.63;16.75;;;17.20;87.00;;;;;;5120919;28;20051;-84
2022/03/23 10:47:01;;;;;;;23.70;16.08;;;17.20;89.10;;;;;;5100140;28;20047;-84
2022/03/23 10:49:36;;;;;;;24.60;16.10;;;17.40;89.90;;;;;;5116745;28;20039;-84
2022/03/23 10:52:13;;;;;;;26.08;16.60;;;17.50;85.80;;;;;;5135158;28;20484;-84
2022/03/23 10:54:39;;;;;;;27.52;16.02;;;17.60;88.70;;;;;;5116838;28;20377;-84
2022/03/23 10:57:05;;;;;;;24.67;15.50;;;17.80;89.00;;;;;;5116885;28;20054;-84
2022/03/23 10:59:32;;;;;;;23.55;15.65;;;17.80;88.50;;;;;;5107748;28;20043;-84
2022/03/23 11:02:05;;;;;;;21.10;13.75;;;17.90;86.20;;;;;;5151221;28;20039;-84
2022/03/23 11:04:56;;;;;;;22.98;14.18;;;17.90;78.10;;;;;;5128615;28;20043;-84
2022/03/23 11:07:28;;;;;;;23.02;15.05;;;18.10;77.20;;;;;;5145981;28;20100;-84
2022/03/23 11:15:48;;;;;;;22.77;14.23;;;18.40;79.50;;;;;;5129005;28;20055;-84
2022/03/23 11:18:17;;;;;;;25.98;14.70;;;18.60;79.90;;;;;;5128580;28;20095;-84
2022/03/23 11:20:48;;;;;;;26.85;16.25;;;18.70;77.80;;;;;;5108970;28;20067;-84
2022/03/23 11:23:18;;;;;;;22.48;14.73;;;18.80;78.70;;;;;;5100836;28;20079;-84
2022/03/23 11:25:48;;;;;;;22.40;14.05;;;18.90;76.20;;;;;;5117538;28;20043;-84
2022/03/23 11:28:15;;;;;;;21.95;14.48;;;19.00;74.90;;;;;;5108496;28;20044;-85
2022/03/23 11:30:43;;;;;;;21.30;13.43;;;19.10;74.70;;;;;;5107834;28;20050;-85
2022/03/23 11:33:10;;;;;;;21.05;12.90;;;19.20;74.30;;;;;;5117207;28;20590;-84
2022/03/23 11:35:46;;;;;;;21.67;12.10;;;19.10;71.20;;;;;;5123116;28;20035;-82
2022/03/23 11:38:13;;;;;;;23.00;11.30;;;19.10;70.40;;;;;;5115019;28;20088;-82
2022/03/23 11:40:44;;;;;;;21.83;12.55;;;19.20;71.10;;;;;;5096508;28;20051;-82
2022/03/23 11:43:14;;;;;;;20.65;12.05;;;19.20;70.10;;;;;;5096567;28;20072;-82
2022/03/23 11:45:42;;;;;;;20.67;11.15;;;19.40;72.80;;;;;;5117848;28;20131;-82
2022/03/23 11:48:37;;;;;;;19.67;11.02;;;19.50;72.50;;;;;;5118666;28;20059;-82
2022/03/23 11:51:41;;;;;;;18.08;10.80;;;19.60;65.00;;;;;;5118162;28;20036;-82
2022/03/23 11:55:36;;;;;;;18.23;11.70;;;19.60;70.80;;;;;;5000123;28;20054;-83
2022/03/23 11:57:16;;;;;;;20.05;11.90;;;19.70;68.80;;;;;;4999877;28;20052;-84
2022/03/23 11:59:43;;;;;;;28.77;11.93;;;19.70;70.00;;;;;;5095862;28;20052;-84
2022/03/23 12:02:09;;;;;;;21.67;12.60;;;19.80;67.90;;;;;;5139594;27;20054;-85
2022/03/23 12:04:35;;;;;;;19.02;10.25;;;19.80;65.90;;;;;;5120902;27;20047;-87
2022/03/23 12:07:06;;;;;;;19.88;8.23;;;19.90;65.80;;;;;;5107393;22;20096;-83
2022/03/23 12:09:32;;;;;;;14.93;7.47;;;20.10;65.60;;;;;;5107372;22;20078;-84
2022/03/23 12:11:59;;;;;;;14.93;8.15;;;20.00;66.80;;;;;;5051888;28;20040;-84
2022/03/23 12:14:35;;;;;;;15.85;7.53;;;20.00;65.30;;;;;;5084147;28;20052;-85
2022/03/23 12:17:09;;;;;;;15.73;7.18;;;20.00;64.50;;;;;;5077553;28;20541;-86
2022/03/23 12:20:05;;;;;;;16.73;6.88;;;20.10;65.60;;;;;;5080081;28;20048;-85
2022/03/23 12:22:34;;;;;;;14.23;6.57;;;20.30;61.10;;;;;;5079156;28;20036;-85
2022/03/23 12:25:37;;;;;;;19.00;7.75;;;20.40;65.90;;;;;;5104732;28;20043;-85
2022/03/23 12:28:55;;;;;;;18.60;7.63;;;20.50;62.60;;;;;;5110922;22;20032;-85
2022/03/23 12:38:24;;;;;;;13.57;7.25;;;20.70;61.00;;;;;;5115307;22;20425;-84
2022/03/23 12:41:15;;;;;;;16.88;8.93;;;20.80;63.70;;;;;;5102136;22;20139;-84
2022/03/23 12:43:49;;;;;;;16.30;8.82;;;20.90;64.10;;;;;;5128565;22;20047;-83
2022/03/23 12:46:18;;;;;;;16.98;9.13;;;21.00;64.70;;;;;;5155252;27;20441;-84
2022/03/23 12:58:30;;;;;;;18.10;9.77;;;21.50;60.60;;;;;;5122371;22;20458;-84
2022/03/23 13:01:19;;;;;;;18.10;11.20;;;21.60;59.00;;;;;;5135346;27;20546;-84
2022/03/23 13:03:44;;;;;;;19.33;9.95;;;21.70;60.40;;;;;;5135082;27;20040;-85
2022/03/23 13:06:15;;;;;;;19.38;10.02;;;21.70;60.90;;;;;;5116873;28;20043;-85
2022/03/23 13:08:49;;;;;;;19.00;9.85;;;22.00;60.30;;;;;;5082514;28;20399;-85
2022/03/23 13:11:20;;;;;;;22.95;10.23;;;22.10;62.00;;;;;;5104387;28;20051;-85
2022/03/23 13:13:50;;;;;;;17.83;8.57;;;22.30;58.30;;;;;;5115686;27;20055;-84
2022/03/23 13:16:22;;;;;;;13.88;7.35;;;22.30;59.50;;;;;;5118694;27;20126;-85
2022/03/23 13:18:48;;;;;;;16.00;7.60;;;22.60;55.50;;;;;;5118947;27;20050;-85